createdAt,value
2023-04-18T00:01:21.041Z,100893.18
2023-04-18T00:03:45.273Z,100890.95
2023-04-18T00:06:09.748Z,100888.02
2023-04-18T00:08:33.681Z,100887.84
2023-04-18T00:10:57.259Z,100886.47
2023-04-18T00:13:20.950Z,100883.89
2023-04-18T00:15:45.607Z,100885.65
2023-04-18T00:18:09.861Z,100879.91
2023-04-18T00:20:33.527Z,100875.55
2023-04-18T00:23:00.097Z,100876.95
2023-04-18T00:25:43.735Z,100881.43
2023-04-18T00:28:10.060Z,100883.33
2023-04-18T00:30:33.599Z,100881.45
2023-04-18T00:32:57.213Z,100881.65
2023-04-18T00:35:21.316Z,100882.17
2023-04-18T00:37:44.820Z,100883.41
2023-04-18T00:40:10.213Z,100881.86
2023-04-18T00:42:36.526Z,100881.86
2023-04-18T00:45:03.781Z,100884.48
2023-04-18T00:47:27.302Z,100885.73
2023-04-18T00:49:54.396Z,100887.83
2023-04-18T00:52:18.888Z,100883.70
2023-04-18T00:54:46.711Z,100885.96
2023-04-18T00:57:10.609Z,100886.34
2023-04-18T00:59:35.041Z,100886.55
2023-04-18T01:02:08.561Z,100882.71
2023-04-18T01:04:43.003Z,100883.27
2023-04-18T01:07:07.774Z,100887.98
2023-04-18T01:09:31.522Z,100883.14
2023-04-18T01:11:55.625Z,100883.33
2023-04-18T01:14:19.756Z,100880.58
2023-04-18T01:16:43.453Z,100883.34
2023-04-18T01:19:10.771Z,100883.00
2023-04-18T01:21:35.522Z,100883.17
2023-04-18T01:24:19.370Z,100881.98
2023-04-18T01:26:47.510Z,100887.20
2023-04-18T01:29:15.826Z,100883.73
2023-04-18T01:31:40.770Z,100879.91
2023-04-18T01:34:24.892Z,100878.73
2023-04-18T01:36:50.733Z,100878.04
2023-04-18T01:39:14.879Z,100874.92
2023-04-18T01:41:38.601Z,100878.21
2023-04-18T01:44:22.537Z,100876.33
2023-04-18T01:46:46.016Z,100876.00
2023-04-18T01:49:11.545Z,100878.41
2023-04-18T01:51:55.602Z,100876.52
2023-04-18T01:54:20.992Z,100882.06
2023-04-18T01:56:44.449Z,100880.67
2023-04-18T01:59:08.102Z,100880.48
2023-04-18T02:01:52.066Z,100875.82
2023-04-18T02:04:16.100Z,100875.65
2023-04-18T02:06:48.707Z,100879.13
2023-04-18T02:09:14.622Z,100874.60
2023-04-18T02:11:41.130Z,100873.58
2023-04-18T02:14:07.653Z,100869.06
2023-04-18T02:16:34.359Z,100869.73
2023-04-18T02:19:18.222Z,100865.42
2023-04-18T02:22:02.086Z,100866.29
2023-04-18T02:24:34.455Z,100861.77
2023-04-18T02:27:00.313Z,100862.13
2023-04-18T02:29:23.850Z,100862.83
2023-04-18T02:31:47.615Z,100863.86
2023-04-18T02:34:12.034Z,100864.40
2023-04-18T02:36:36.843Z,100866.27
2023-04-18T02:39:00.284Z,100865.73
2023-04-18T02:41:23.934Z,100865.36
2023-04-18T02:43:47.572Z,100865.35
2023-04-18T02:46:12.125Z,100866.93
2023-04-18T02:48:35.768Z,100870.91
2023-04-18T02:51:03.402Z,100868.83
2023-04-18T02:53:47.607Z,100869.57
2023-04-18T02:56:12.372Z,100870.27
2023-04-18T02:58:59.056Z,100871.80
2023-04-18T03:01:40.808Z,100872.66
2023-04-18T03:04:07.698Z,100871.81
2023-04-18T03:06:35.222Z,100873.73
2023-04-18T03:08:58.869Z,100872.53
2023-04-18T03:11:25.496Z,100871.50
2023-04-18T03:13:53.114Z,100877.21
2023-04-18T03:16:17.353Z,100875.48
2023-04-18T03:18:40.914Z,100875.98
2023-04-18T03:21:04.896Z,100874.09
2023-04-18T03:23:48.873Z,100874.96
2023-04-18T03:26:14.218Z,100877.58
2023-04-18T03:28:57.986Z,100880.91
2023-04-18T03:31:42.284Z,100882.69
2023-04-18T03:34:06.280Z,100880.96
2023-04-18T03:36:30.748Z,100882.31
2023-04-18T03:38:54.956Z,100883.35
2023-04-18T03:41:18.822Z,100884.58
2023-04-18T03:43:44.861Z,100886.13
2023-04-18T03:46:11.061Z,100884.39
2023-04-18T03:48:36.646Z,100890.95
2023-04-18T03:51:20.254Z,100886.83
2023-04-18T03:53:56.520Z,100889.44
2023-04-18T03:56:20.111Z,100893.27
2023-04-18T03:59:04.005Z,100892.05
2023-04-18T04:01:31.397Z,100888.95
2023-04-18T04:04:03.028Z,100892.75
2023-04-18T04:06:47.571Z,100887.34
2023-04-18T04:09:13.964Z,100886.77
2023-04-18T04:11:40.636Z,100889.52
2023-04-18T04:14:16.997Z,100892.94
2023-04-18T04:16:54.391Z,100889.27
2023-04-18T04:19:30.834Z,100891.69
2023-04-18T04:22:14.437Z,100891.31
2023-04-18T04:24:39.017Z,100893.02
2023-04-18T04:27:03.321Z,100896.45
2023-04-18T04:29:48.730Z,100899.17
2023-04-18T04:32:13.118Z,100898.98
2023-04-18T04:34:40.669Z,100902.77
2023-04-18T04:37:18.044Z,100902.41
2023-04-18T04:40:02.186Z,100905.84
2023-04-18T04:42:45.336Z,100902.34
2023-04-18T04:45:13.421Z,100904.06
2023-04-18T04:47:36.979Z,100907.70
2023-04-18T04:50:00.607Z,100904.75
2023-04-18T04:52:24.133Z,100913.06
2023-04-18T04:54:47.774Z,100915.98
2023-04-18T04:57:12.354Z,100912.80
2023-04-18T04:59:36.849Z,100915.87
2023-04-18T05:02:02.238Z,100915.63
2023-04-18T05:04:26.992Z,100918.70
2023-04-18T05:06:50.586Z,100920.02
2023-04-18T05:09:14.047Z,100919.98
2023-04-18T05:11:37.735Z,100920.10
2023-04-18T05:14:01.223Z,100921.98
2023-04-18T05:16:24.907Z,100921.23
2023-04-18T05:18:48.641Z,100921.17
2023-04-18T05:21:12.154Z,100922.29
2023-04-18T05:23:36.419Z,100922.00
2023-04-18T05:26:00.201Z,100919.98
2023-04-18T05:28:26.325Z,100922.39
2023-04-18T05:31:00.485Z,100923.10
2023-04-18T05:33:24.421Z,100925.52
2023-04-18T05:35:47.894Z,100927.52
2023-04-18T05:38:11.429Z,100925.30
2023-04-18T05:40:35.221Z,100921.27
2023-04-18T05:42:58.692Z,100917.38
2023-04-18T05:45:22.164Z,100917.19
2023-04-18T05:47:46.124Z,100916.17
2023-04-18T05:50:10.693Z,100918.79
2023-04-18T05:52:34.087Z,100915.58
2023-04-18T05:54:57.982Z,100915.01
2023-04-18T05:57:21.381Z,100919.42
2023-04-18T05:59:44.838Z,100917.66
2023-04-18T06:02:12.850Z,100918.02
2023-04-18T06:04:47.873Z,100922.02
2023-04-18T06:07:11.765Z,100924.98
2023-04-18T06:09:35.517Z,100922.59
2023-04-18T06:11:59.262Z,100924.09
2023-04-18T06:14:43.057Z,100925.38
2023-04-18T06:17:09.606Z,100927.30
2023-04-18T06:19:33.031Z,100923.02
2023-04-18T06:21:56.823Z,100927.45
2023-04-18T06:24:20.480Z,100926.59
2023-04-18T06:26:51.570Z,100926.20
2023-04-18T06:29:17.309Z,100926.25
2023-04-18T06:31:44.714Z,100926.88
2023-04-18T06:34:08.278Z,100925.40
2023-04-18T06:36:32.038Z,100925.56
2023-04-18T06:38:55.489Z,100925.64
2023-04-18T06:41:18.887Z,100922.56
2023-04-18T06:43:52.041Z,100925.00
2023-04-18T06:46:23.058Z,100933.55
2023-04-18T06:48:46.709Z,100932.24
2023-04-18T06:51:10.218Z,100934.20
2023-04-18T06:53:33.712Z,100938.59
2023-04-18T06:56:07.048Z,100937.86
2023-04-18T06:58:30.513Z,100930.27
2023-04-18T07:00:53.973Z,100935.75
2023-04-18T07:03:17.958Z,100940.85
2023-04-18T07:05:41.601Z,100935.04
2023-04-18T07:08:05.094Z,100938.56
2023-04-18T07:10:31.358Z,100941.44
2023-04-18T07:12:54.800Z,100943.23
2023-04-18T07:15:18.419Z,100943.34
2023-04-18T07:17:42.392Z,100943.87
2023-04-18T07:20:08.410Z,100938.98
2023-04-18T07:22:31.787Z,100943.08
2023-04-18T07:24:55.320Z,100942.27
2023-04-18T07:27:18.692Z,100945.52
2023-04-18T07:29:42.212Z,100944.16
2023-04-18T07:32:08.122Z,100939.79
2023-04-18T07:34:33.180Z,100938.38
2023-04-18T07:36:57.311Z,100936.84
2023-04-18T07:39:20.939Z,100938.52
2023-04-18T07:41:44.424Z,100937.64
2023-04-18T07:44:07.856Z,100938.13
2023-04-18T07:46:33.399Z,100937.52
2023-04-18T07:48:56.853Z,100936.21
2023-04-18T07:51:20.259Z,100938.00
2023-04-18T07:53:44.092Z,100938.39
2023-04-18T07:56:07.948Z,100941.27
2023-04-18T07:58:31.751Z,100941.83
2023-04-18T08:00:55.555Z,100940.42
2023-04-18T08:03:19.300Z,100936.49
2023-04-18T08:05:43.571Z,100941.02
2023-04-18T08:08:08.054Z,100939.95
2023-04-18T08:10:31.740Z,100939.22
2023-04-18T08:12:55.096Z,100935.41
2023-04-18T08:15:18.723Z,100931.05
2023-04-18T08:17:44.437Z,100934.05
2023-04-18T08:20:08.991Z,100929.20
2023-04-18T08:22:32.800Z,100927.13
2023-04-18T08:25:04.395Z,100926.81
2023-04-18T08:27:30.019Z,100923.10
2023-04-18T08:29:54.138Z,100921.66
2023-04-18T08:32:17.477Z,100913.67
2023-04-18T08:34:41.305Z,100914.16
2023-04-18T08:37:05.250Z,100917.56
2023-04-18T08:39:28.590Z,100910.37
2023-04-18T08:41:58.926Z,100912.08
2023-04-18T08:44:23.279Z,100907.12
2023-04-18T08:46:46.669Z,100909.95
2023-04-18T08:49:11.878Z,100906.64
2023-04-18T08:51:36.953Z,100905.14
2023-04-18T08:54:03.831Z,100898.20
2023-04-18T08:56:27.959Z,100895.59
2023-04-18T08:58:51.653Z,100896.98
2023-04-18T09:01:17.118Z,100896.96
2023-04-18T09:03:41.692Z,100891.88
2023-04-18T09:06:11.835Z,100894.40
2023-04-18T09:08:35.432Z,100893.89
2023-04-18T09:11:25.366Z,100888.33
2023-04-18T09:13:49.670Z,100889.42
2023-04-18T09:16:13.736Z,100887.50
2023-04-18T09:18:37.909Z,100886.21
2023-04-18T09:21:18.736Z,100886.11
2023-04-18T09:23:42.391Z,100877.58
2023-04-18T09:26:05.832Z,100876.77
2023-04-18T09:28:30.457Z,100880.92
2023-04-18T09:30:55.465Z,100883.10
2023-04-18T09:33:27.545Z,100884.14
2023-04-18T09:35:51.306Z,100886.73
2023-04-18T09:38:14.943Z,100879.05
2023-04-18T09:40:38.432Z,100879.06
2023-04-18T09:43:17.063Z,100877.48
2023-04-18T09:45:40.593Z,100878.92
2023-04-18T09:48:04.430Z,100877.23
2023-04-18T09:50:28.073Z,100877.65
2023-04-18T09:52:52.202Z,100871.13
2023-04-18T09:55:17.408Z,100878.02
2023-04-18T09:57:43.683Z,100871.88
2023-04-18T10:00:16.139Z,100875.08
2023-04-18T10:02:47.913Z,100871.71
2023-04-18T10:05:13.528Z,100876.50
2023-04-18T10:07:37.547Z,100881.24
2023-04-18T10:10:01.010Z,100879.68
2023-04-18T10:12:25.233Z,100873.20
2023-04-18T10:14:49.075Z,100876.80
2023-04-18T10:17:13.863Z,100871.41
2023-04-18T10:19:40.543Z,100871.73
2023-04-18T10:22:03.846Z,100873.77
2023-04-18T10:24:52.258Z,100876.34
2023-04-18T10:27:16.276Z,100873.80
2023-04-18T10:29:56.834Z,100874.65
2023-04-18T10:32:23.023Z,100879.20
2023-04-18T10:34:47.065Z,100880.23
2023-04-18T10:37:12.556Z,100870.36
2023-04-18T10:39:49.891Z,100876.48
2023-04-18T10:42:13.685Z,100874.37
2023-04-18T10:44:37.063Z,100871.91
2023-04-18T10:47:22.307Z,100866.84
2023-04-18T10:49:54.640Z,100869.31
2023-04-18T10:52:18.521Z,100862.99
2023-04-18T10:54:50.703Z,100859.73
2023-04-18T10:57:14.770Z,100857.45
2023-04-18T10:59:39.472Z,100860.02
2023-04-18T11:02:13.896Z,100857.67
2023-04-18T11:04:37.619Z,100854.82
2023-04-18T11:07:01.963Z,100856.98
2023-04-18T11:09:25.920Z,100855.88
2023-04-18T11:12:03.374Z,100854.24
2023-04-18T11:14:26.889Z,100857.58
2023-04-18T11:16:50.290Z,100854.16
2023-04-18T11:19:21.239Z,100854.98
2023-04-18T11:21:44.944Z,100854.54
2023-04-18T11:24:08.417Z,100856.27
2023-04-18T11:26:31.979Z,100853.79
2023-04-18T11:28:57.620Z,100850.41
2023-04-18T11:31:23.987Z,100851.23
2023-04-18T11:33:46.962Z,100845.86
2023-04-18T11:36:11.603Z,100840.63
2023-04-18T11:38:35.655Z,100843.82
2023-04-18T11:41:02.050Z,100837.91
2023-04-18T11:43:26.085Z,100840.02
2023-04-18T11:45:53.697Z,100840.30
2023-04-18T11:48:17.177Z,100834.06
2023-04-18T11:50:40.931Z,100837.42
2023-04-18T11:53:04.307Z,100837.24
2023-04-18T11:55:27.793Z,100837.50
2023-04-18T11:57:52.782Z,100835.28
2023-04-18T12:00:18.931Z,100832.56
2023-04-18T12:02:43.738Z,100829.77
2023-04-18T12:05:09.573Z,100828.21
2023-04-18T12:07:38.272Z,100828.84
2023-04-18T12:10:02.174Z,100827.80
2023-04-18T12:12:25.866Z,100825.05
2023-04-18T12:14:57.016Z,100828.88
2023-04-18T12:17:20.528Z,100823.81
2023-04-18T12:19:45.047Z,100826.23
2023-04-18T12:22:09.266Z,100824.80
2023-04-18T12:24:33.111Z,100822.98
2023-04-18T12:26:57.282Z,100823.57
2023-04-18T12:29:20.683Z,100820.14
2023-04-18T12:31:44.054Z,100820.02
2023-04-18T12:34:07.728Z,100813.29
2023-04-18T12:36:31.165Z,100812.95
2023-04-18T12:38:54.584Z,100810.12
2023-04-18T12:41:18.224Z,100807.22
2023-04-18T12:43:41.636Z,100804.33
2023-04-18T12:46:05.305Z,100801.52
2023-04-18T12:48:28.886Z,100797.71
2023-04-18T12:50:52.313Z,100797.29
2023-04-18T12:53:15.620Z,100799.55
2023-04-18T12:55:39.370Z,100793.10
2023-04-18T12:58:03.236Z,100794.46
2023-04-18T13:00:29.383Z,100789.88
2023-04-18T13:02:53.873Z,100791.30
2023-04-18T13:05:20.474Z,100788.92
2023-04-18T13:07:44.249Z,100784.47
2023-04-18T13:10:10.895Z,100785.54
2023-04-18T13:12:34.420Z,100782.63
2023-04-18T13:14:58.034Z,100779.59
2023-04-18T13:17:21.729Z,100778.52
2023-04-18T13:19:45.294Z,100776.81
2023-04-18T13:22:08.916Z,100773.10
2023-04-18T13:24:32.629Z,100770.23
2023-04-18T13:26:56.550Z,100769.69
2023-04-18T13:29:20.130Z,100768.73
2023-04-18T13:31:43.949Z,100759.15
2023-04-18T13:34:07.414Z,100763.45
2023-04-18T13:36:34.190Z,100765.90
2023-04-18T13:38:58.364Z,100762.23
2023-04-18T13:41:43.047Z,100762.32
2023-04-18T13:44:07.728Z,100759.60
2023-04-18T13:46:31.224Z,100749.56
2023-04-18T13:48:54.629Z,100748.84
2023-04-18T13:51:18.350Z,100745.67
2023-04-18T13:53:41.771Z,100744.66
2023-04-18T13:56:06.204Z,100747.10
2023-04-18T13:58:29.925Z,100744.73
2023-04-18T14:00:53.797Z,100742.73
2023-04-18T14:03:17.347Z,100748.63
2023-04-18T14:05:40.894Z,100748.11
2023-04-18T14:08:04.716Z,100743.77
2023-04-18T14:10:28.282Z,100741.64
2023-04-18T14:12:51.918Z,100740.77
2023-04-18T14:18:53.200Z,100733.76
2023-04-18T14:21:16.595Z,100732.17
2023-04-18T14:23:40.045Z,100728.73
2023-04-18T14:26:04.705Z,100731.58
2023-04-18T14:28:28.259Z,100727.13
2023-04-18T14:30:51.929Z,100728.10
2023-04-18T14:33:15.516Z,100726.57
2023-04-18T14:35:39.276Z,100724.73
2023-04-18T14:38:02.597Z,100723.36
2023-04-18T14:40:26.804Z,100720.83
2023-04-18T14:42:50.359Z,100720.73
2023-04-18T14:45:15.554Z,100718.23
2023-04-18T14:47:39.181Z,100717.02
2023-04-18T14:50:02.659Z,100716.25
2023-04-18T14:52:26.060Z,100714.08
2023-04-18T14:54:49.815Z,100717.20
2023-04-18T14:57:13.434Z,100720.84
2023-04-18T14:59:36.793Z,100722.23
2023-04-18T15:02:02.563Z,100717.28
2023-04-18T15:04:26.620Z,100718.66
2023-04-18T15:06:50.250Z,100718.00
2023-04-18T15:09:15.324Z,100719.84
2023-04-18T15:11:38.668Z,100720.77
2023-04-18T15:14:02.050Z,100723.70
2023-04-18T15:16:25.828Z,100721.15
2023-04-18T15:18:49.262Z,100722.80
2023-04-18T15:21:12.923Z,100720.39
2023-04-18T15:23:36.540Z,100724.89
2023-04-18T15:25:59.908Z,100713.88
2023-04-18T15:28:23.457Z,100713.95
2023-04-18T15:30:47.517Z,100712.63
2023-04-18T15:33:12.159Z,100719.46
2023-04-18T15:35:35.706Z,100721.08
2023-04-18T15:37:59.548Z,100717.04
2023-04-18T15:40:22.970Z,100718.19
2023-04-18T15:42:48.704Z,100719.65
2023-04-18T15:45:13.068Z,100717.15
2023-04-18T15:47:36.603Z,100717.36
2023-04-18T15:50:00.158Z,100713.52
2023-04-18T15:52:23.755Z,100712.34
2023-04-18T15:54:47.178Z,100711.18
2023-04-18T15:57:11.020Z,100706.07
2023-04-18T15:59:35.371Z,100706.88
2023-04-18T16:01:58.919Z,100705.47
2023-04-18T16:04:23.444Z,100703.67
2023-04-18T16:06:47.048Z,100704.30
2023-04-18T16:09:10.406Z,100704.77
2023-04-18T16:11:33.818Z,100706.41
2023-04-18T16:13:57.304Z,100704.22
2023-04-18T16:16:20.714Z,100704.95
2023-04-18T16:18:44.171Z,100701.63
2023-04-18T16:21:08.036Z,100703.80
2023-04-18T16:23:32.180Z,100701.52
2023-04-18T16:25:55.516Z,100697.30
2023-04-18T16:28:19.114Z,100693.52
2023-04-18T16:30:43.207Z,100692.48
2023-04-18T16:33:06.653Z,100695.41
2023-04-18T16:35:30.372Z,100693.11
2023-04-18T16:37:53.752Z,100689.02
2023-04-18T16:40:17.112Z,100687.89
2023-04-18T16:42:41.149Z,100685.70
2023-04-18T16:45:05.720Z,100685.80
2023-04-18T16:47:29.748Z,100682.61
2023-04-18T16:49:53.535Z,100683.70
2023-04-18T16:52:17.088Z,100680.18
2023-04-18T16:54:41.351Z,100685.79
2023-04-18T16:57:05.214Z,100684.30
2023-04-18T16:59:28.593Z,100684.84
2023-04-18T17:01:52.081Z,100683.16
2023-04-18T17:04:15.846Z,100680.03
2023-04-18T17:06:41.484Z,100680.96
2023-04-18T17:09:05.509Z,100680.02
2023-04-18T17:11:29.555Z,100678.02
2023-04-18T17:13:53.033Z,100678.65
2023-04-18T17:16:16.854Z,100680.90
2023-04-18T17:18:41.040Z,100679.84
2023-04-18T17:21:04.654Z,100676.14
2023-04-18T17:23:28.048Z,100678.37
2023-04-18T17:25:51.801Z,100679.86
2023-04-18T17:28:15.707Z,100678.93
2023-04-18T17:30:41.280Z,100678.89
2023-04-18T17:33:05.297Z,100678.14
2023-04-18T17:35:29.033Z,100678.98
2023-04-18T17:37:52.601Z,100680.88
2023-04-18T17:40:16.472Z,100677.88
2023-04-18T17:42:39.934Z,100679.75
2023-04-18T17:45:03.582Z,100677.84
2023-04-18T17:47:27.116Z,100681.59
2023-04-18T17:49:50.565Z,100682.20
2023-04-18T17:52:14.147Z,100681.77
2023-04-18T17:54:37.589Z,100682.40
2023-04-18T17:57:01.805Z,100680.81
2023-04-18T17:59:28.128Z,100681.31
2023-04-18T18:01:51.780Z,100683.34
2023-04-18T18:04:15.734Z,100686.74
2023-04-18T18:06:39.287Z,100687.74
2023-04-18T18:09:03.274Z,100686.12
2023-04-18T18:11:27.002Z,100685.95
2023-04-18T18:13:53.932Z,100686.95
2023-04-18T18:16:17.512Z,100681.81
2023-04-18T18:18:40.890Z,100680.37
2023-04-18T18:21:04.498Z,100677.16
2023-04-18T18:23:28.849Z,100676.54
2023-04-18T18:25:52.296Z,100677.40
2023-04-18T18:28:15.718Z,100674.57
2023-04-18T18:30:39.617Z,100676.98
2023-04-18T18:33:03.110Z,100677.11
2023-04-18T18:35:26.866Z,100672.83
2023-04-18T18:37:50.461Z,100669.42
2023-04-18T18:40:14.325Z,100673.92
2023-04-18T18:42:38.429Z,100672.44
2023-04-18T18:45:03.169Z,100670.77
2023-04-18T18:47:26.687Z,100668.64
2023-04-18T18:49:50.224Z,100669.55
2023-04-18T18:52:13.946Z,100665.23
2023-04-18T18:54:37.393Z,100660.41
2023-04-18T18:57:02.118Z,100659.98
2023-04-18T18:59:25.793Z,100657.79
2023-04-18T19:01:49.181Z,100657.38
2023-04-18T19:04:12.694Z,100652.20
2023-04-18T19:06:36.373Z,100652.47
2023-04-18T19:08:59.818Z,100649.93
2023-04-18T19:11:23.391Z,100652.78
2023-04-18T19:13:47.023Z,100646.60
2023-04-18T19:16:10.450Z,100647.55
2023-04-18T19:18:34.052Z,100651.80
2023-04-18T19:20:57.721Z,100646.45
2023-04-18T19:23:23.142Z,100645.34
2023-04-18T19:25:46.962Z,100639.80
2023-04-18T19:28:10.439Z,100642.20
2023-04-18T19:30:33.880Z,100641.42
2023-04-18T19:32:57.396Z,100638.74
2023-04-18T19:35:21.376Z,100636.05
2023-04-18T19:37:44.790Z,100634.77
2023-04-18T19:40:10.140Z,100629.61
2023-04-18T19:42:33.778Z,100630.25
2023-04-18T19:44:58.384Z,100628.48
2023-04-18T19:47:21.811Z,100631.02
2023-04-18T19:49:45.350Z,100629.73
2023-04-18T19:52:08.727Z,100627.63
2023-04-18T19:54:32.950Z,100625.32
2023-04-18T19:56:58.106Z,100628.55
2023-04-18T19:59:21.953Z,100627.63
2023-04-18T20:01:45.411Z,100627.23
2023-04-18T20:04:09.260Z,100626.11
2023-04-18T20:06:33.032Z,100619.60
2023-04-18T20:08:56.642Z,100619.07
2023-04-18T20:11:21.502Z,100619.23
2023-04-18T20:13:45.264Z,100618.46
2023-04-18T20:16:10.307Z,100623.46
2023-04-18T20:18:35.157Z,100623.01
2023-04-18T20:20:58.547Z,100620.64
2023-04-18T20:23:21.954Z,100620.02
2023-04-18T20:25:45.520Z,100616.98
2023-04-18T20:28:08.903Z,100614.85
2023-04-18T20:30:34.112Z,100612.95
2023-04-18T20:32:57.808Z,100613.48
2023-04-18T20:35:21.687Z,100610.44
2023-04-18T20:37:45.158Z,100609.34
2023-04-18T20:40:10.652Z,100608.60
2023-04-18T20:42:34.152Z,100607.13
2023-04-18T20:44:58.146Z,100604.44
2023-04-18T20:47:21.822Z,100604.20
2023-04-18T20:49:45.607Z,100603.77
2023-04-18T20:52:09.217Z,100597.75
2023-04-18T20:54:32.710Z,100594.85
2023-04-18T20:56:56.094Z,100593.17
2023-04-18T20:59:19.612Z,100589.80
2023-04-18T21:01:43.370Z,100587.84
2023-04-18T21:04:06.919Z,100584.64
2023-04-18T21:06:33.556Z,100582.84
2023-04-18T21:08:57.365Z,100582.40
2023-04-18T21:11:20.716Z,100575.85
2023-04-18T21:13:44.310Z,100576.09
2023-04-18T21:16:10.284Z,100573.77
2023-04-18T21:18:37.094Z,100572.35
2023-04-18T21:21:00.576Z,100573.98
2023-04-18T21:23:26.505Z,100566.04
2023-04-18T21:25:49.936Z,100563.70
2023-04-18T21:28:13.355Z,100563.73
2023-04-18T21:30:37.296Z,100565.89
2023-04-18T21:33:00.775Z,100564.44
2023-04-18T21:35:24.887Z,100560.34
2023-04-18T21:37:48.742Z,100557.77
2023-04-18T21:40:12.851Z,100552.95
2023-04-18T21:42:36.329Z,100554.92
2023-04-18T21:45:00.559Z,100554.52
2023-04-18T21:47:25.186Z,100552.50
2023-04-18T21:49:50.032Z,100555.02
2023-04-18T21:52:34.054Z,100553.23
2023-04-18T21:55:18.084Z,100547.23
2023-04-18T21:58:02.051Z,100547.66
2023-04-18T22:00:28.013Z,100544.98
2023-04-18T22:02:51.464Z,100542.65
2023-04-18T22:05:16.003Z,100540.30
2023-04-18T22:07:54.435Z,100540.06
2023-04-18T22:10:22.123Z,100538.60
2023-04-18T22:12:50.688Z,100535.39
2023-04-18T22:15:14.368Z,100535.29
2023-04-18T22:17:49.665Z,100529.64
2023-04-18T22:20:27.466Z,100529.05
2023-04-18T22:22:51.000Z,100524.09
2023-04-18T22:25:14.366Z,100525.01
2023-04-18T22:27:38.129Z,100519.30
2023-04-18T22:30:13.280Z,100521.23
2023-04-18T22:32:36.958Z,100519.86
2023-04-18T22:35:01.103Z,100512.64
2023-04-18T22:37:24.957Z,100513.63
2023-04-18T22:39:48.295Z,100504.81
2023-04-18T22:42:11.574Z,100505.98
2023-04-18T22:44:37.949Z,100504.67
2023-04-18T22:47:04.090Z,100497.58
2023-04-18T22:49:29.962Z,100500.80
2023-04-18T22:51:53.866Z,100495.48
2023-04-18T22:54:17.459Z,100497.49
2023-04-18T22:56:41.142Z,100494.25
2023-04-18T22:59:25.122Z,100492.44
2023-04-18T23:01:48.648Z,100490.09
2023-04-18T23:04:12.295Z,100487.57
2023-04-18T23:06:38.233Z,100488.34
2023-04-18T23:09:02.399Z,100482.69
2023-04-18T23:11:26.211Z,100482.40
2023-04-18T23:13:50.114Z,100482.45
2023-04-18T23:16:13.498Z,100480.76
2023-04-18T23:18:37.020Z,100475.63
2023-04-18T23:21:00.838Z,100471.75
2023-04-18T23:23:24.621Z,100466.54
2023-04-18T23:25:48.032Z,100461.83
2023-04-18T23:28:13.010Z,100460.54
2023-04-18T23:30:36.575Z,100454.87
2023-04-18T23:33:09.437Z,100450.48
2023-04-18T23:35:33.279Z,100452.11
2023-04-18T23:37:56.830Z,100446.95
2023-04-18T23:40:21.067Z,100438.73
2023-04-18T23:42:44.887Z,100442.80
2023-04-18T23:45:09.399Z,100438.90
2023-04-18T23:47:33.122Z,100435.94
2023-04-18T23:49:56.964Z,100438.00
2023-04-18T23:52:23.025Z,100438.96
2023-04-18T23:54:46.388Z,100436.58
2023-04-18T23:57:13.302Z,100431.59
2023-04-18T23:59:36.780Z,100431.50
